Time;durP1;ratioP1;P1;durP2;ratioP2;P2;SDS_P1;SDS_P2;PMS_P1;PMS_P2;Temp;Humidity;BMP_temperature;BMP_pressure;BME280_temperature;BME280_humidity;BME280_pressure;Samples;Min_cycle;Max_cycle;Signal;HPM_P1;HPM_P2
2021/12/18 00:01:22;;;;;;;;;;;;;;;;;;4132885;28;7153;-57
2021/12/18 00:03:43;;;;;;;;;;;;;;;;;;4133503;28;7007;-53
2021/12/18 00:06:04;;;;;;;;;;;;;;;;;;4133722;28;7122;-53
2021/12/18 00:08:26;;;;;;;;;;;;;;;;;;4133533;28;7030;-54
2021/12/18 00:10:47;;;;;;;;;;;;;;;;;;4133452;28;7011;-53
2021/12/18 00:13:10;;;;;;;;;;;;;;;;;;4133642;28;6990;-54
2021/12/18 00:15:31;;;;;;;;;;;;;;;;;;4133410;28;6998;-54
2021/12/18 00:17:52;;;;;;;;;;;;;;;;;;4133340;28;7093;-53
2021/12/18 00:20:15;;;;;;;;;;;;;;;;;;4133437;28;7002;-54
2021/12/18 00:22:36;;;;;;;;;;;;;;;;;;4133399;28;7019;-54
2021/12/18 00:24:57;;;;;;;;;;;;;;;;;;4133307;28;7058;-53
2021/12/18 00:27:18;;;;;;;;;;;;;;;;;;4133304;28;7149;-53
2021/12/18 00:29:41;;;;;;;;;;;;;;;;;;4133104;28;7019;-53
2021/12/18 00:32:02;;;;;;;;;;;;;;;;;;4133251;28;7404;-54
2021/12/18 00:34:24;;;;;;;;;;;;;;;;;;4133143;28;7022;-54
2021/12/18 00:36:45;;;;;;;;;;;;;;;;;;4133181;28;7021;-53
2021/12/18 00:39:07;;;;;;;;;;;;;;;;;;4133031;28;7053;-53
2021/12/18 00:41:46;;;;;;;;;;;;;;;;;;4133280;28;7006;-53
2021/12/18 00:44:07;;;;;;;;;;;;;;;;;;4132991;28;7015;-54
2021/12/18 00:46:31;;;;;;;;;;;;;;;;;;4132367;28;7003;-54
2021/12/18 00:48:52;;;;;;;;;;;;;;;;;;4132809;28;7023;-54
2021/12/18 00:51:13;;;;;;;;;;;;;;;;;;4133268;28;7137;-54
2021/12/18 00:53:34;;;;;;;;;;;;;;;;;;4133474;28;7022;-54
2021/12/18 00:55:56;;;;;;;;;;;;;;;;;;4133342;28;7158;-54
2021/12/18 00:58:18;;;;;;;;;;;;;;;;;;4133133;28;7002;-53
2021/12/18 01:00:41;;;;;;;;;;;;;;;;;;4133044;28;7332;-53
2021/12/18 01:03:04;;;;;;;;;;;;;;;;;;4132990;28;7006;-53
2021/12/18 01:05:25;;;;;;;;;;;;;;;;;;4133192;28;6990;-54
2021/12/18 01:07:47;;;;;;;;;;;;;;;;;;4132891;28;7006;-54
2021/12/18 01:10:24;;;;;;;;;;;;;;;;;;4133371;28;7694;-53
2021/12/18 01:12:48;;;;;;;;;;;;;;;;;;4129140;28;7030;-54
2021/12/18 01:15:17;;;;;;;;;;;;;;;;;;4116806;28;7006;-54
2021/12/18 01:22:58;;;;;;;;;;;;;;;;;;4116613;28;7031;-53
2021/12/18 01:25:20;;;;;;;;;;;;;;;;;;4116573;28;7002;-54
2021/12/18 01:27:42;;;;;;;;;;;;;;;;;;4116744;28;7015;-53
2021/12/18 01:30:04;;;;;;;;;;;;;;;;;;4116558;28;7183;-53
2021/12/18 01:32:27;;;;;;;;;;;;;;;;;;4116563;28;7234;-53
2021/12/18 01:34:49;;;;;;;;;;;;;;;;;;4116516;28;7034;-53
2021/12/18 01:37:12;;;;;;;;;;;;;;;;;;4116638;28;7018;-53
2021/12/18 01:39:33;;;;;;;;;;;;;;;;;;4116494;28;7374;-53
2021/12/18 01:42:12;;;;;;;;;;;;;;;;;;4116445;28;7109;-54
2021/12/18 01:44:56;;;;;;;;;;;;;;;;;;4116169;28;7002;-54
2021/12/18 01:52:33;;;;;;;;;;;;;;;;;;4116275;28;7176;-54
2021/12/18 01:54:55;;;;;;;;;;;;;;;;;;4116275;28;7019;-54
2021/12/18 01:57:16;;;;;;;;;;;;;;;;;;4116269;28;6991;-54
2021/12/18 01:59:38;;;;;;;;;;;;;;;;;;4116258;28;7015;-53
2021/12/18 02:02:00;;;;;;;;;;;;;;;;;;4115493;28;7008;-53
2021/12/18 02:04:21;;;;;;;;;;;;;;;;;;4115739;28;7010;-53
2021/12/18 02:06:42;;;;;;;;;;;;;;;;;;4116061;28;7002;-53
2021/12/18 02:09:05;;;;;;;;;;;;;;;;;;4130975;28;6991;-54
2021/12/18 02:11:30;;;;;;;;;;;;;;;;;;4131468;28;7026;-53
2021/12/18 02:14:21;;;;;;;;;;;;;;;;;;4131142;28;7152;-53
2021/12/18 02:19:48;;;;;;;;;;;;;;;;;;4131207;28;7092;-53
2021/12/18 02:22:11;;;;;;;;;;;;;;;;;;4131210;28;7046;-54
2021/12/18 02:24:33;;;;;;;;;;;;;;;;;;4130754;28;7555;-54
2021/12/18 02:26:55;;;;;;;;;;;;;;;;;;4131130;28;7372;-54
2021/12/18 02:29:17;;;;;;;;;;;;;;;;;;4130886;28;7019;-53
2021/12/18 02:31:38;;;;;;;;;;;;;;;;;;4131178;28;7056;-54
2021/12/18 02:34:01;;;;;;;;;;;;;;;;;;4131220;28;7050;-53
2021/12/18 02:36:24;;;;;;;;;;;;;;;;;;4130990;28;7019;-53
2021/12/18 02:39:00;;;;;;;;;;;;;;;;;;4131099;28;7047;-54
2021/12/18 02:41:28;;;;;;;;;;;;;;;;;;4131253;28;7002;-53
2021/12/18 02:43:50;;;;;;;;;;;;;;;;;;4131023;28;7046;-54
2021/12/18 02:46:17;;;;;;;;;;;;;;;;;;4131070;28;7191;-54
2021/12/18 02:48:39;;;;;;;;;;;;;;;;;;4131206;28;7015;-54
2021/12/18 02:51:00;;;;;;;;;;;;;;;;;;4130974;28;6999;-53
2021/12/18 02:53:22;;;;;;;;;;;;;;;;;;4131247;28;6990;-53
2021/12/18 02:55:44;;;;;;;;;;;;;;;;;;4131473;28;7408;-53
2021/12/18 02:58:06;;;;;;;;;;;;;;;;;;4131005;28;7147;-53
2021/12/18 03:00:29;;;;;;;;;;;;;;;;;;4131395;28;7188;-53
2021/12/18 03:02:50;;;;;;;;;;;;;;;;;;4131426;28;7016;-53
2021/12/18 03:05:18;;;;;;;;;;;;;;;;;;4131293;28;6999;-54
2021/12/18 03:07:39;;;;;;;;;;;;;;;;;;4131393;28;7006;-54
2021/12/18 03:23:33;;;;;;;;;;;;;;;;;;4131350;28;7006;-54
2021/12/18 03:25:57;;;;;;;;;;;;;;;;;;4131420;28;7006;-53
2021/12/18 03:28:19;;;;;;;;;;;;;;;;;;4130905;28;7003;-53
2021/12/18 03:30:41;;;;;;;;;;;;;;;;;;4131237;28;7006;-54
2021/12/18 03:33:02;;;;;;;;;;;;;;;;;;4131181;28;7229;-53
2021/12/18 03:35:24;;;;;;;;;;;;;;;;;;4131729;28;7038;-53
2021/12/18 03:37:45;;;;;;;;;;;;;;;;;;4134023;28;7002;-53
2021/12/18 03:40:08;;;;;;;;;;;;;;;;;;4133811;28;7050;-54
2021/12/18 03:42:29;;;;;;;;;;;;;;;;;;4133759;28;7164;-53
2021/12/18 03:44:52;;;;;;;;;;;;;;;;;;4133779;28;6994;-54
2021/12/18 03:47:13;;;;;;;;;;;;;;;;;;4134039;28;7015;-53
2021/12/18 03:49:34;;;;;;;;;;;;;;;;;;4133878;28;7002;-54
2021/12/18 03:51:55;;;;;;;;;;;;;;;;;;4133485;28;7205;-54
2021/12/18 03:54:17;;;;;;;;;;;;;;;;;;4133777;28;6990;-53
2021/12/18 03:56:38;;;;;;;;;;;;;;;;;;4133592;28;7018;-54
2021/12/18 03:58:59;;;;;;;;;;;;;;;;;;4148121;28;7129;-53
2021/12/18 04:01:22;;;;;;;;;;;;;;;;;;4133690;28;7050;-53
2021/12/18 04:03:43;;;;;;;;;;;;;;;;;;4133765;28;7047;-53
2021/12/18 04:06:04;;;;;;;;;;;;;;;;;;4133372;28;7038;-53
2021/12/18 04:08:26;;;;;;;;;;;;;;;;;;4133666;28;7061;-53
2021/12/18 04:10:47;;;;;;;;;;;;;;;;;;4132661;28;7015;-54
2021/12/18 04:13:09;;;;;;;;;;;;;;;;;;4133388;28;7006;-53
2021/12/18 04:15:31;;;;;;;;;;;;;;;;;;4133489;28;7037;-53
2021/12/18 04:17:53;;;;;;;;;;;;;;;;;;4133695;28;7160;-53
2021/12/18 04:20:16;;;;;;;;;;;;;;;;;;4133518;28;7176;-53
2021/12/18 04:22:37;;;;;;;;;;;;;;;;;;4133686;28;6986;-53
2021/12/18 04:24:58;;;;;;;;;;;;;;;;;;4133488;28;7019;-53
2021/12/18 04:27:19;;;;;;;;;;;;;;;;;;4133315;28;7160;-54
2021/12/18 04:29:41;;;;;;;;;;;;;;;;;;4133623;28;6999;-53
2021/12/18 04:32:02;;;;;;;;;;;;;;;;;;4133273;28;7037;-54
2021/12/18 04:34:25;;;;;;;;;;;;;;;;;;4133366;28;7010;-54
2021/12/18 04:36:46;;;;;;;;;;;;;;;;;;4133279;28;7019;-54
2021/12/18 04:39:07;;;;;;;;;;;;;;;;;;4133267;28;7023;-54
2021/12/18 04:41:38;;;;;;;;;;;;;;;;;;4132975;28;7236;-54
2021/12/18 04:43:59;;;;;;;;;;;;;;;;;;4133220;28;7244;-53
2021/12/18 04:46:21;;;;;;;;;;;;;;;;;;4132817;28;7144;-53
2021/12/18 04:48:42;;;;;;;;;;;;;;;;;;4132972;28;7175;-53
2021/12/18 04:51:05;;;;;;;;;;;;;;;;;;4132848;28;7545;-53
2021/12/18 04:53:26;;;;;;;;;;;;;;;;;;4133011;28;7027;-54
2021/12/18 04:55:48;;;;;;;;;;;;;;;;;;4132819;28;7019;-54
2021/12/18 04:58:09;;;;;;;;;;;;;;;;;;4132724;28;7120;-54
2021/12/18 05:00:38;;;;;;;;;;;;;;;;;;4132769;28;7015;-53
2021/12/18 05:03:02;;;;;;;;;;;;;;;;;;4132916;28;6995;-53
2021/12/18 05:05:23;;;;;;;;;;;;;;;;;;4132958;28;7034;-53
2021/12/18 05:07:46;;;;;;;;;;;;;;;;;;4132918;28;7019;-54
2021/12/18 05:10:07;;;;;;;;;;;;;;;;;;4132651;28;7226;-53
2021/12/18 05:12:29;;;;;;;;;;;;;;;;;;4132765;28;7481;-54
2021/12/18 05:14:50;;;;;;;;;;;;;;;;;;4132556;28;7086;-53
2021/12/18 05:17:12;;;;;;;;;;;;;;;;;;4132709;28;7054;-54
2021/12/18 05:19:33;;;;;;;;;;;;;;;;;;4132718;28;7006;-54
2021/12/18 05:21:55;;;;;;;;;;;;;;;;;;4132235;28;7033;-53
2021/12/18 05:24:17;;;;;;;;;;;;;;;;;;4132398;28;7006;-53
2021/12/18 05:26:38;;;;;;;;;;;;;;;;;;4129404;28;7069;-53
2021/12/18 05:29:00;;;;;;;;;;;;;;;;;;4132582;28;7010;-53
2021/12/18 05:31:21;;;;;;;;;;;;;;;;;;4132496;28;7021;-54
2021/12/18 05:33:43;;;;;;;;;;;;;;;;;;4132395;28;7148;-54
2021/12/18 05:36:23;;;;;;;;;;;;;;;;;;4132363;28;7022;-54
2021/12/18 05:38:45;;;;;;;;;;;;;;;;;;4132003;28;7002;-54
2021/12/18 05:41:07;;;;;;;;;;;;;;;;;;4132268;28;7015;-54
2021/12/18 05:43:28;;;;;;;;;;;;;;;;;;4132278;28;7199;-54
2021/12/18 05:45:50;;;;;;;;;;;;;;;;;;4132175;28;7006;-54
2021/12/18 05:48:12;;;;;;;;;;;;;;;;;;4132396;28;7019;-54
2021/12/18 05:50:33;;;;;;;;;;;;;;;;;;4132381;28;7018;-53
2021/12/18 05:52:55;;;;;;;;;;;;;;;;;;4132271;28;7050;-53
2021/12/18 05:55:20;;;;;;;;;;;;;;;;;;4132212;28;7010;-53
2021/12/18 05:57:43;;;;;;;;;;;;;;;;;;4131809;28;7108;-53
2021/12/18 06:00:05;;;;;;;;;;;;;;;;;;4132119;28;7006;-53
2021/12/18 06:02:26;;;;;;;;;;;;;;;;;;4132174;28;7152;-53
2021/12/18 06:04:47;;;;;;;;;;;;;;;;;;4132276;28;7172;-53
2021/12/18 06:07:16;;;;;;;;;;;;;;;;;;4131920;28;7087;-54
2021/12/18 06:09:37;;;;;;;;;;;;;;;;;;4132176;28;7045;-54
2021/12/18 06:12:00;;;;;;;;;;;;;;;;;;4131819;28;7174;-53
2021/12/18 06:14:24;;;;;;;;;;;;;;;;;;4131795;28;7056;-53
2021/12/18 06:16:45;;;;;;;;;;;;;;;;;;4132088;28;7431;-53
2021/12/18 06:19:06;;;;;;;;;;;;;;;;;;4132092;28;7241;-53
2021/12/18 06:21:27;;;;;;;;;;;;;;;;;;4131954;28;6994;-53
2021/12/18 06:23:50;;;;;;;;;;;;;;;;;;4132015;28;7406;-53
2021/12/18 06:26:11;;;;;;;;;;;;;;;;;;4131985;28;6990;-53
2021/12/18 06:28:33;;;;;;;;;;;;;;;;;;4131719;28;7152;-54
2021/12/18 06:30:55;;;;;;;;;;;;;;;;;;4131916;28;6998;-54
2021/12/18 06:33:17;;;;;;;;;;;;;;;;;;4131884;28;7121;-53
2021/12/18 06:35:38;;;;;;;;;;;;;;;;;;4131709;28;7094;-53
2021/12/18 06:38:00;;;;;;;;;;;;;;;;;;4131836;28;7184;-53
2021/12/18 06:40:21;;;;;;;;;;;;;;;;;;4131805;28;6999;-54
2021/12/18 06:42:43;;;;;;;;;;;;;;;;;;4131961;28;7169;-54
2021/12/18 06:45:05;;;;;;;;;;;;;;;;;;4131892;28;7305;-54
2021/12/18 06:47:27;;;;;;;;;;;;;;;;;;4131661;28;7006;-54
2021/12/18 06:49:48;;;;;;;;;;;;;;;;;;4131519;28;7185;-54
2021/12/18 06:52:10;;;;;;;;;;;;;;;;;;4131582;28;7059;-53
2021/12/18 06:54:31;;;;;;;;;;;;;;;;;;4131806;28;7140;-53
2021/12/18 06:56:52;;;;;;;;;;;;;;;;;;4131341;28;7019;-53
2021/12/18 06:59:14;;;;;;;;;;;;;;;;;;4131647;28;7046;-53
2021/12/18 07:01:36;;;;;;;;;;;;;;;;;;4131859;28;7007;-53
2021/12/18 07:03:58;;;;;;;;;;;;;;;;;;4131678;28;7170;-54
2021/12/18 07:06:19;;;;;;;;;;;;;;;;;;4131443;28;7010;-54
2021/12/18 07:08:41;;;;;;;;;;;;;;;;;;4131582;28;7006;-54
2021/12/18 07:11:02;;;;;;;;;;;;;;;;;;4134727;28;7174;-54
2021/12/18 07:13:24;;;;;;;;;;;;;;;;;;4134438;28;6991;-53
2021/12/18 07:15:45;;;;;;;;;;;;;;;;;;4134580;28;7029;-53
2021/12/18 07:18:06;;;;;;;;;;;;;;;;;;4134492;28;7165;-53
2021/12/18 07:20:29;;;;;;;;;;;;;;;;;;4134279;28;7045;-53
2021/12/18 07:22:50;;;;;;;;;;;;;;;;;;4134308;28;7041;-54
2021/12/18 07:25:12;;;;;;;;;;;;;;;;;;4133228;28;7006;-54
2021/12/18 07:27:34;;;;;;;;;;;;;;;;;;4129964;28;7235;-53
2021/12/18 07:29:56;;;;;;;;;;;;;;;;;;4118345;28;7050;-53
2021/12/18 07:32:17;;;;;;;;;;;;;;;;;;4125248;28;7019;-54
2021/12/18 07:34:38;;;;;;;;;;;;;;;;;;4133963;28;7034;-54
2021/12/18 07:37:01;;;;;;;;;;;;;;;;;;4133985;28;7280;-54
2021/12/18 07:39:23;;;;;;;;;;;;;;;;;;4133886;28;7025;-54
2021/12/18 07:41:44;;;;;;;;;;;;;;;;;;4134062;28;7006;-54
2021/12/18 07:44:06;;;;;;;;;;;;;;;;;;4134020;28;6990;-53
2021/12/18 07:46:28;;;;;;;;;;;;;;;;;;4133918;28;7116;-54
2021/12/18 07:48:49;;;;;;;;;;;;;;;;;;4133502;28;7026;-54
2021/12/18 07:51:10;;;;;;;;;;;;;;;;;;4133680;28;7048;-54
2021/12/18 07:53:34;;;;;;;;;;;;;;;;;;4133603;28;7041;-53
2021/12/18 07:55:55;;;;;;;;;;;;;;;;;;4133518;28;7164;-53
2021/12/18 07:58:16;;;;;;;;;;;;;;;;;;4133688;28;7085;-54
2021/12/18 08:00:38;;;;;;;;;;;;;;;;;;4133752;28;7506;-54
2021/12/18 08:02:59;;;;;;;;;;;;;;;;;;4133515;28;7007;-54
2021/12/18 08:05:20;;;;;;;;;;;;;;;;;;4133857;28;7025;-54
2021/12/18 08:07:41;;;;;;;;;;;;;;;;;;4133447;28;7148;-54
2021/12/18 08:10:05;;;;;;;;;;;;;;;;;;4133341;28;7120;-53
2021/12/18 08:12:26;;;;;;;;;;;;;;;;;;4133637;28;6987;-53
2021/12/18 08:14:48;;;;;;;;;;;;;;;;;;4133425;28;7015;-54
2021/12/18 08:17:09;;;;;;;;;;;;;;;;;;4133292;28;7132;-54
2021/12/18 08:19:30;;;;;;;;;;;;;;;;;;4133560;28;7150;-53
2021/12/18 08:21:52;;;;;;;;;;;;;;;;;;4132402;28;7100;-53
2021/12/18 08:24:13;;;;;;;;;;;;;;;;;;4132923;28;6986;-53
2021/12/18 08:26:36;;;;;;;;;;;;;;;;;;4117686;28;7002;-54
2021/12/18 08:28:57;;;;;;;;;;;;;;;;;;4117533;28;7051;-54
2021/12/18 08:31:19;;;;;;;;;;;;;;;;;;4117749;28;7201;-54
2021/12/18 08:33:40;;;;;;;;;;;;;;;;;;4117463;28;7022;-54
2021/12/18 08:36:01;;;;;;;;;;;;;;;;;;4117476;28;7037;-54
2021/12/18 08:38:23;;;;;;;;;;;;;;;;;;4117525;28;7002;-53
2021/12/18 08:40:45;;;;;;;;;;;;;;;;;;4128039;28;7002;-54
2021/12/18 08:43:08;;;;;;;;;;;;;;;;;;4132937;28;6986;-54
2021/12/18 08:45:30;;;;;;;;;;;;;;;;;;4133026;28;7423;-54
2021/12/18 08:47:52;;;;;;;;;;;;;;;;;;4132883;28;7191;-53
2021/12/18 08:50:16;;;;;;;;;;;;;;;;;;4132857;28;7002;-53
2021/12/18 08:52:38;;;;;;;;;;;;;;;;;;4132900;28;7011;-54
2021/12/18 08:54:59;;;;;;;;;;;;;;;;;;4132655;28;7002;-53
2021/12/18 08:57:20;;;;;;;;;;;;;;;;;;4132701;28;7443;-54
2021/12/18 08:59:43;;;;;;;;;;;;;;;;;;4132940;28;7459;-54
2021/12/18 09:02:04;;;;;;;;;;;;;;;;;;4132617;28;7027;-54
2021/12/18 09:04:26;;;;;;;;;;;;;;;;;;4132712;28;7077;-53
2021/12/18 09:06:47;;;;;;;;;;;;;;;;;;4132829;28;7015;-53
2021/12/18 09:09:08;;;;;;;;;;;;;;;;;;4132781;28;7407;-53
2021/12/18 09:11:30;;;;;;;;;;;;;;;;;;4116766;28;7002;-54
2021/12/18 09:13:51;;;;;;;;;;;;;;;;;;4116604;28;7178;-53
2021/12/18 09:16:14;;;;;;;;;;;;;;;;;;4116701;28;7066;-54
2021/12/18 09:18:35;;;;;;;;;;;;;;;;;;4116724;28;6990;-54
2021/12/18 09:20:57;;;;;;;;;;;;;;;;;;4123078;28;7135;-53
2021/12/18 09:23:19;;;;;;;;;;;;;;;;;;4132797;28;7019;-54
2021/12/18 09:25:40;;;;;;;;;;;;;;;;;;4132045;28;7022;-54
2021/12/18 09:28:02;;;;;;;;;;;;;;;;;;4132452;28;7519;-54
2021/12/18 09:30:23;;;;;;;;;;;;;;;;;;4132144;28;7002;-53
2021/12/18 09:32:46;;;;;;;;;;;;;;;;;;4132337;28;7023;-54
2021/12/18 09:35:08;;;;;;;;;;;;;;;;;;4132167;28;7088;-54
2021/12/18 09:37:29;;;;;;;;;;;;;;;;;;4132165;28;7156;-54
2021/12/18 09:39:50;;;;;;;;;;;;;;;;;;4131903;28;7029;-53
2021/12/18 09:42:12;;;;;;;;;;;;;;;;;;4132362;28;7006;-53
2021/12/18 09:44:34;;;;;;;;;;;;;;;;;;4131931;28;7019;-54
2021/12/18 09:46:55;;;;;;;;;;;;;;;;;;4131340;28;7023;-53
2021/12/18 09:49:17;;;;;;;;;;;;;;;;;;4131704;28;7179;-53
2021/12/18 09:51:39;;;;;;;;;;;;;;;;;;4132159;28;7017;-54
2021/12/18 09:54:00;;;;;;;;;;;;;;;;;;4131979;28;7006;-54
2021/12/18 09:56:22;;;;;;;;;;;;;;;;;;4116334;28;6975;-53
2021/12/18 09:58:43;;;;;;;;;;;;;;;;;;4128866;28;7183;-53
2021/12/18 10:01:06;;;;;;;;;;;;;;;;;;4131349;28;7046;-53
2021/12/18 10:03:42;;;;;;;;;;;;;;;;;;4131880;28;7482;-54
2021/12/18 10:06:05;;;;;;;;;;;;;;;;;;4132265;28;6982;-54
2021/12/18 10:08:26;;;;;;;;;;;;;;;;;;4131877;28;7057;-54
2021/12/18 10:11:04;;;;;;;;;;;;;;;;;;4131857;28;7446;-54
2021/12/18 10:13:25;;;;;;;;;;;;;;;;;;4131539;28;7173;-53
2021/12/18 10:15:47;;;;;;;;;;;;;;;;;;4131607;28;6995;-53
2021/12/18 10:18:08;;;;;;;;;;;;;;;;;;4131204;28;7014;-53
2021/12/18 10:20:30;;;;;;;;;;;;;;;;;;4131544;28;7534;-53
2021/12/18 10:22:53;;;;;;;;;;;;;;;;;;4130873;28;7415;-53
2021/12/18 10:25:15;;;;;;;;;;;;;;;;;;4130253;28;7010;-53
2021/12/18 10:27:37;;;;;;;;;;;;;;;;;;4131351;28;7019;-53
2021/12/18 10:30:09;;;;;;;;;;;;;;;;;;4146346;28;7133;-53
2021/12/18 10:32:30;;;;;;;;;;;;;;;;;;4131545;28;7051;-53
2021/12/18 10:34:52;;;;;;;;;;;;;;;;;;4131545;28;7022;-53
2021/12/18 10:37:18;;;;;;;;;;;;;;;;;;4131660;28;7499;-53
2021/12/18 10:39:41;;;;;;;;;;;;;;;;;;4130301;28;7253;-53
2021/12/18 10:42:14;;;;;;;;;;;;;;;;;;4130598;28;7027;-53
2021/12/18 10:44:37;;;;;;;;;;;;;;;;;;4131846;28;7011;-53
2021/12/18 10:46:58;;;;;;;;;;;;;;;;;;4134685;28;7013;-53
2021/12/18 10:49:21;;;;;;;;;;;;;;;;;;4134851;28;7024;-53
2021/12/18 10:51:43;;;;;;;;;;;;;;;;;;4134945;28;6998;-54
2021/12/18 10:54:05;;;;;;;;;;;;;;;;;;4134779;28;7464;-53
2021/12/18 10:56:33;;;;;;;;;;;;;;;;;;4127741;28;7007;-54
2021/12/18 10:58:54;;;;;;;;;;;;;;;;;;4134588;28;7046;-54
2021/12/18 11:01:16;;;;;;;;;;;;;;;;;;4134707;28;7178;-53
2021/12/18 11:03:38;;;;;;;;;;;;;;;;;;4134848;28;7007;-53
2021/12/18 11:06:03;;;;;;;;;;;;;;;;;;4134351;28;7019;-53
2021/12/18 11:08:24;;;;;;;;;;;;;;;;;;4133021;28;7201;-53
2021/12/18 11:11:05;;;;;;;;;;;;;;;;;;4134194;28;7038;-53
2021/12/18 11:13:41;;;;;;;;;;;;;;;;;;4134441;28;7051;-54
2021/12/18 11:16:02;;;;;;;;;;;;;;;;;;4134229;28;7021;-54
2021/12/18 11:18:23;;;;;;;;;;;;;;;;;;4133744;28;7188;-53
2021/12/18 11:20:46;;;;;;;;;;;;;;;;;;4123205;28;7577;-54
2021/12/18 11:23:07;;;;;;;;;;;;;;;;;;4134086;28;7158;-54
2021/12/18 11:25:28;;;;;;;;;;;;;;;;;;4132959;28;7030;-53
2021/12/18 11:27:50;;;;;;;;;;;;;;;;;;4133383;28;7019;-54
2021/12/18 11:30:13;;;;;;;;;;;;;;;;;;4134292;28;7073;-54
2021/12/18 11:32:35;;;;;;;;;;;;;;;;;;4134414;28;6998;-55
2021/12/18 11:34:57;;;;;;;;;;;;;;;;;;4134274;28;7019;-56
2021/12/18 11:37:18;;;;;;;;;;;;;;;;;;4134315;28;7176;-54
2021/12/18 11:39:39;;;;;;;;;;;;;;;;;;4133458;28;7220;-55
2021/12/18 11:42:01;;;;;;;;;;;;;;;;;;4117641;28;7152;-55
2021/12/18 11:44:26;;;;;;;;;;;;;;;;;;4129371;28;7002;-55
2021/12/18 11:46:48;;;;;;;;;;;;;;;;;;4133725;28;7565;-55
2021/12/18 11:49:10;;;;;;;;;;;;;;;;;;4133613;28;7019;-54
2021/12/18 11:51:31;;;;;;;;;;;;;;;;;;4133915;28;7484;-54
2021/12/18 11:53:52;;;;;;;;;;;;;;;;;;4133927;28;7047;-54
2021/12/18 11:56:14;;;;;;;;;;;;;;;;;;4132145;28;7006;-54
2021/12/18 11:58:41;;;;;;;;;;;;;;;;;;4134041;28;7006;-54
2021/12/18 12:01:05;;;;;;;;;;;;;;;;;;4134053;28;7129;-54
2021/12/18 12:03:29;;;;;;;;;;;;;;;;;;4133734;28;7025;-54
2021/12/18 12:05:51;;;;;;;;;;;;;;;;;;4133402;28;7570;-54
2021/12/18 12:08:18;;;;;;;;;;;;;;;;;;4133628;28;7007;-55
2021/12/18 12:10:49;;;;;;;;;;;;;;;;;;4132825;28;7526;-55
2021/12/18 12:13:10;;;;;;;;;;;;;;;;;;4132843;28;7209;-54
2021/12/18 12:15:31;;;;;;;;;;;;;;;;;;4131017;28;7448;-54
2021/12/18 12:17:57;;;;;;;;;;;;;;;;;;4131774;28;7972;-54
2021/12/18 12:20:25;;;;;;;;;;;;;;;;;;4127534;28;7391;-54
2021/12/18 12:22:52;;;;;;;;;;;;;;;;;;4132967;28;7459;-54
2021/12/18 12:25:14;;;;;;;;;;;;;;;;;;4123564;28;7019;-54
2021/12/18 12:27:37;;;;;;;;;;;;;;;;;;4133331;28;7204;-55
2021/12/18 12:29:59;;;;;;;;;;;;;;;;;;4133025;28;7054;-54
2021/12/18 12:32:21;;;;;;;;;;;;;;;;;;4133043;28;7022;-55
2021/12/18 12:34:44;;;;;;;;;;;;;;;;;;4132855;28;7027;-55
2021/12/18 12:37:21;;;;;;;;;;;;;;;;;;4117111;28;7149;-54
2021/12/18 12:39:53;;;;;;;;;;;;;;;;;;4121632;28;7772;-55
2021/12/18 12:42:24;;;;;;;;;;;;;;;;;;4131068;28;7006;-56
2021/12/18 12:44:52;;;;;;;;;;;;;;;;;;4131555;28;7187;-55
2021/12/18 12:47:14;;;;;;;;;;;;;;;;;;4133010;28;7324;-55
2021/12/18 12:49:35;;;;;;;;;;;;;;;;;;4133069;28;7018;-56
2021/12/18 12:52:00;;;;;;;;;;;;;;;;;;4132773;28;7479;-55
2021/12/18 12:54:37;;;;;;;;;;;;;;;;;;4128386;28;7010;-55
2021/12/18 12:57:13;;;;;;;;;;;;;;;;;;4132591;28;7003;-55
2021/12/18 12:59:35;;;;;;;;;;;;;;;;;;4130935;28;7133;-55
2021/12/18 13:01:57;;;;;;;;;;;;;;;;;;4132166;28;7038;-55
2021/12/18 13:04:18;;;;;;;;;;;;;;;;;;4132592;28;7482;-55
2021/12/18 13:06:39;;;;;;;;;;;;;;;;;;4132565;28;7006;-55
2021/12/18 13:09:01;;;;;;;;;;;;;;;;;;4132606;28;7015;-56
2021/12/18 13:11:24;;;;;;;;;;;;;;;;;;4116676;28;7019;-55
2021/12/18 13:13:45;;;;;;;;;;;;;;;;;;4116876;28;7236;-55
2021/12/18 13:16:10;;;;;;;;;;;;;;;;;;4116608;28;7114;-55
2021/12/18 13:18:32;;;;;;;;;;;;;;;;;;4116439;28;7007;-55
2021/12/18 13:20:55;;;;;;;;;;;;;;;;;;4122795;28;7507;-56
2021/12/18 13:23:18;;;;;;;;;;;;;;;;;;4132092;28;7004;-55
2021/12/18 13:25:46;;;;;;;;;;;;;;;;;;4132157;28;7014;-55
2021/12/18 13:28:07;;;;;;;;;;;;;;;;;;4132445;28;7019;-55
2021/12/18 13:30:28;;;;;;;;;;;;;;;;;;4132434;28;7403;-55
2021/12/18 13:32:52;;;;;;;;;;;;;;;;;;4146309;28;7146;-55
2021/12/18 13:35:14;;;;;;;;;;;;;;;;;;4131740;28;7024;-55
2021/12/18 13:37:36;;;;;;;;;;;;;;;;;;4132110;28;6987;-55
2021/12/18 13:39:57;;;;;;;;;;;;;;;;;;4131756;28;7002;-55
2021/12/18 13:42:19;;;;;;;;;;;;;;;;;;4132187;28;6999;-55
2021/12/18 13:44:43;;;;;;;;;;;;;;;;;;4131806;28;6998;-55
2021/12/18 13:47:12;;;;;;;;;;;;;;;;;;4115998;28;7021;-55
2021/12/18 13:49:34;;;;;;;;;;;;;;;;;;4118213;28;7011;-55
2021/12/18 13:51:55;;;;;;;;;;;;;;;;;;4131485;28;7011;-55
2021/12/18 13:54:17;;;;;;;;;;;;;;;;;;4131802;28;7008;-55
2021/12/18 13:56:43;;;;;;;;;;;;;;;;;;4131990;28;7136;-55
2021/12/18 13:59:12;;;;;;;;;;;;;;;;;;4131806;28;7049;-55
2021/12/18 14:01:34;;;;;;;;;;;;;;;;;;4132005;28;7034;-55
2021/12/18 14:03:57;;;;;;;;;;;;;;;;;;4132139;28;7106;-55
2021/12/18 14:06:20;;;;;;;;;;;;;;;;;;4131831;28;7162;-55
2021/12/18 14:08:43;;;;;;;;;;;;;;;;;;4131054;28;7065;-55
2021/12/18 14:11:04;;;;;;;;;;;;;;;;;;4131304;28;7004;-55
2021/12/18 14:13:27;;;;;;;;;;;;;;;;;;4131795;28;7014;-55
2021/12/18 14:15:48;;;;;;;;;;;;;;;;;;4131885;28;7006;-55
2021/12/18 14:18:28;;;;;;;;;;;;;;;;;;4131835;28;7101;-55
2021/12/18 14:20:50;;;;;;;;;;;;;;;;;;4131094;28;7034;-55
2021/12/18 14:23:12;;;;;;;;;;;;;;;;;;4131536;28;7024;-56
2021/12/18 14:25:33;;;;;;;;;;;;;;;;;;4131173;28;6987;-55
2021/12/18 14:27:56;;;;;;;;;;;;;;;;;;4131483;28;6987;-55
2021/12/18 14:30:21;;;;;;;;;;;;;;;;;;4144204;28;7014;-55
2021/12/18 14:32:42;;;;;;;;;;;;;;;;;;4131671;28;7195;-55
2021/12/18 14:35:04;;;;;;;;;;;;;;;;;;4131411;28;7105;-55
2021/12/18 14:37:25;;;;;;;;;;;;;;;;;;4131782;28;7498;-55
2021/12/18 14:39:51;;;;;;;;;;;;;;;;;;4131179;28;7159;-55
2021/12/18 14:42:24;;;;;;;;;;;;;;;;;;4131324;28;7010;-55
2021/12/18 14:44:47;;;;;;;;;;;;;;;;;;4131454;28;7274;-55
2021/12/18 14:47:15;;;;;;;;;;;;;;;;;;4131496;28;7101;-55
2021/12/18 14:50:09;;;;;;;;;;;;;;;;;;4118432;28;6974;-55
2021/12/18 14:52:31;;;;;;;;;;;;;;;;;;4115794;28;7273;-55
2021/12/18 14:54:54;;;;;;;;;;;;;;;;;;4119329;28;7019;-55
2021/12/18 14:57:18;;;;;;;;;;;;;;;;;;4131567;28;7003;-55
2021/12/18 14:59:40;;;;;;;;;;;;;;;;;;4130797;28;7006;-55
2021/12/18 15:02:01;;;;;;;;;;;;;;;;;;4131349;28;7022;-55
2021/12/18 15:04:23;;;;;;;;;;;;;;;;;;4131144;28;7049;-55
2021/12/18 15:06:45;;;;;;;;;;;;;;;;;;4131474;28;7002;-55
2021/12/18 15:09:09;;;;;;;;;;;;;;;;;;4131103;28;7057;-55
2021/12/18 15:11:32;;;;;;;;;;;;;;;;;;4115184;28;7046;-55
2021/12/18 15:13:55;;;;;;;;;;;;;;;;;;4115153;28;7006;-55
2021/12/18 15:16:24;;;;;;;;;;;;;;;;;;4115457;28;7197;-55
2021/12/18 15:18:46;;;;;;;;;;;;;;;;;;4115348;28;7003;-55
2021/12/18 15:21:08;;;;;;;;;;;;;;;;;;4123360;28;7003;-55
2021/12/18 15:23:29;;;;;;;;;;;;;;;;;;4130999;28;7047;-55
2021/12/18 15:25:53;;;;;;;;;;;;;;;;;;4130592;28;7003;-55
2021/12/18 15:28:16;;;;;;;;;;;;;;;;;;4130773;28;7006;-55
2021/12/18 15:30:37;;;;;;;;;;;;;;;;;;4131739;28;7415;-55
2021/12/18 15:32:58;;;;;;;;;;;;;;;;;;4133934;28;7037;-55
2021/12/18 15:35:20;;;;;;;;;;;;;;;;;;4133696;28;6991;-54
2021/12/18 15:37:41;;;;;;;;;;;;;;;;;;4133646;28;7434;-55
2021/12/18 15:40:02;;;;;;;;;;;;;;;;;;4132932;28;7002;-55
2021/12/18 15:42:24;;;;;;;;;;;;;;;;;;4133689;28;6982;-55
2021/12/18 15:44:47;;;;;;;;;;;;;;;;;;4133586;28;7419;-54
2021/12/18 15:47:09;;;;;;;;;;;;;;;;;;4133659;28;7168;-54
2021/12/18 15:49:31;;;;;;;;;;;;;;;;;;4133304;28;7061;-54
2021/12/18 15:51:52;;;;;;;;;;;;;;;;;;4133389;28;7007;-55
2021/12/18 15:54:14;;;;;;;;;;;;;;;;;;4133544;28;6986;-54
2021/12/18 15:56:35;;;;;;;;;;;;;;;;;;4117567;28;7046;-54
2021/12/18 15:58:57;;;;;;;;;;;;;;;;;;4117185;28;7002;-54
2021/12/18 16:01:20;;;;;;;;;;;;;;;;;;4120148;28;7025;-54
2021/12/18 16:03:41;;;;;;;;;;;;;;;;;;4132391;28;7553;-54
2021/12/18 16:06:02;;;;;;;;;;;;;;;;;;4132464;28;7554;-54
2021/12/18 16:08:26;;;;;;;;;;;;;;;;;;4132132;28;7049;-54
2021/12/18 16:10:48;;;;;;;;;;;;;;;;;;4131641;28;7379;-54
2021/12/18 16:13:09;;;;;;;;;;;;;;;;;;4131586;28;7047;-54
2021/12/18 16:15:31;;;;;;;;;;;;;;;;;;4129427;28;7050;-54
2021/12/18 16:17:54;;;;;;;;;;;;;;;;;;4130134;28;7160;-54
2021/12/18 16:20:16;;;;;;;;;;;;;;;;;;4130595;28;7101;-55
2021/12/18 16:22:37;;;;;;;;;;;;;;;;;;4131879;28;7015;-53
2021/12/18 16:24:59;;;;;;;;;;;;;;;;;;4130460;28;7002;-54
2021/12/18 16:27:20;;;;;;;;;;;;;;;;;;4130018;28;7011;-54
2021/12/18 16:29:41;;;;;;;;;;;;;;;;;;4131639;28;7188;-54
2021/12/18 16:32:03;;;;;;;;;;;;;;;;;;4132317;28;7108;-54
2021/12/18 16:34:25;;;;;;;;;;;;;;;;;;4131969;28;7003;-54
2021/12/18 16:36:47;;;;;;;;;;;;;;;;;;4131521;28;6995;-54
2021/12/18 16:39:09;;;;;;;;;;;;;;;;;;4128507;28;7192;-55
2021/12/18 16:41:31;;;;;;;;;;;;;;;;;;4131939;28;7081;-54
2021/12/18 16:43:53;;;;;;;;;;;;;;;;;;4125898;28;7049;-54
2021/12/18 16:46:14;;;;;;;;;;;;;;;;;;4132536;28;7427;-54
2021/12/18 16:48:36;;;;;;;;;;;;;;;;;;4131120;28;7015;-53
2021/12/18 16:50:58;;;;;;;;;;;;;;;;;;4133011;28;7209;-53
2021/12/18 16:53:20;;;;;;;;;;;;;;;;;;4132853;28;6994;-53
2021/12/18 16:55:41;;;;;;;;;;;;;;;;;;4132604;28;7002;-54
2021/12/18 16:58:02;;;;;;;;;;;;;;;;;;4132959;28;7011;-53
2021/12/18 17:00:24;;;;;;;;;;;;;;;;;;4132591;28;7002;-53